Time;durP1;ratioP1;P1;durP2;ratioP2;P2;SDS_P1;SDS_P2;PMS_P1;PMS_P2;Temp;Humidity;BMP_temperature;BMP_pressure;BME280_temperature;BME280_humidity;BME280_pressure;Samples;Min_cycle;Max_cycle;Signal;HPM_P1;HPM_P2
2022/06/27 00:00:49;;;;;;;6.50;5.67;;;;;;;;;;5031585;28;20387;-57
2022/06/27 00:03:15;;;;;;;6.63;6.03;;;;;;;;;;5031228;28;20486;-58
2022/06/27 00:05:42;;;;;;;6.40;5.80;;;;;;;;;;5030085;28;20407;-58
2022/06/27 00:08:08;;;;;;;6.77;6.03;;;;;;;;;;5031360;28;20408;-57
2022/06/27 00:10:34;;;;;;;6.60;6.00;;;;;;;;;;5031044;28;20404;-57
2022/06/27 00:13:00;;;;;;;6.37;5.87;;;;;;;;;;5031142;28;20431;-57
2022/06/27 00:15:26;;;;;;;6.40;5.90;;;;;;;;;;5031257;28;20382;-58
2022/06/27 00:17:52;;;;;;;6.47;5.90;;;;;;;;;;5031404;28;20374;-57
2022/06/27 00:20:18;;;;;;;7.53;6.73;;;;;;;;;;5030913;28;20375;-58
2022/06/27 00:22:44;;;;;;;7.87;5.80;;;;;;;;;;5031181;28;20402;-57
2022/06/27 00:25:11;;;;;;;6.60;6.03;;;;;;;;;;5031219;28;20443;-58
2022/06/27 00:27:37;;;;;;;8.07;6.63;;;;;;;;;;5032017;28;20404;-58
2022/06/27 00:30:04;;;;;;;8.30;6.53;;;;;;;;;;5034514;28;20410;-58
2022/06/27 00:32:30;;;;;;;6.57;6.03;;;;;;;;;;5034318;28;20441;-58
2022/06/27 00:34:56;;;;;;;7.60;5.97;;;;;;;;;;5034553;28;20378;-57
2022/06/27 00:37:22;;;;;;;7.13;6.43;;;;;;;;;;5034731;28;20403;-58
2022/06/27 00:39:48;;;;;;;8.73;6.90;;;;;;;;;;5034422;28;20376;-57
2022/06/27 00:42:14;;;;;;;9.47;7.67;;;;;;;;;;5034142;28;20490;-57
2022/06/27 00:44:42;;;;;;;8.60;6.63;;;;;;;;;;5034399;28;20870;-58
2022/06/27 00:47:10;;;;;;;7.50;6.90;;;;;;;;;;5034346;28;20501;-57
2022/06/27 00:49:36;;;;;;;8.37;7.57;;;;;;;;;;5034203;28;20895;-57
2022/06/27 00:52:03;;;;;;;8.70;7.83;;;;;;;;;;5033906;28;20459;-58
2022/06/27 00:54:30;;;;;;;8.13;7.43;;;;;;;;;;5034229;28;20447;-57
2022/06/27 00:56:56;;;;;;;12.43;7.50;;;;;;;;;;5034097;28;20405;-57
2022/06/27 00:59:22;;;;;;;10.87;7.00;;;;;;;;;;5034027;28;20407;-58
2022/06/27 01:01:48;;;;;;;8.17;7.37;;;;;;;;;;5033222;28;20424;-57
2022/06/27 01:04:14;;;;;;;10.87;8.10;;;;;;;;;;5033497;28;20402;-58
2022/06/27 01:06:40;;;;;;;7.50;6.90;;;;;;;;;;5033696;28;20386;-58
2022/06/27 01:09:06;;;;;;;7.63;6.70;;;;;;;;;;5033875;28;20409;-57
2022/06/27 01:11:32;;;;;;;7.80;7.20;;;;;;;;;;5033369;28;20967;-57
2022/06/27 01:13:58;;;;;;;7.73;6.37;;;;;;;;;;5033899;28;20890;-58
2022/06/27 01:16:24;;;;;;;8.90;8.07;;;;;;;;;;5033813;28;20777;-57
2022/06/27 01:18:51;;;;;;;11.43;7.00;;;;;;;;;;5033783;28;20377;-58
2022/06/27 01:21:21;;;;;;;8.43;7.20;;;;;;;;;;5033444;28;20459;-57
2022/06/27 01:23:47;;;;;;;11.13;7.30;;;;;;;;;;5033771;28;20456;-57
2022/06/27 01:26:13;;;;;;;9.23;7.47;;;;;;;;;;5033575;28;20424;-57
2022/06/27 01:28:39;;;;;;;12.50;7.37;;;;;;;;;;5033701;28;20764;-57
2022/06/27 01:31:05;;;;;;;8.03;7.33;;;;;;;;;;5033180;28;20894;-57
2022/06/27 01:33:31;;;;;;;8.93;8.03;;;;;;;;;;5033414;28;20434;-56
2022/06/27 01:38:42;;;;;;;9.07;8.17;;;;;;;;;;5033355;28;20407;-57
2022/06/27 01:41:08;;;;;;;10.13;8.67;;;;;;;;;;5033098;28;20883;-57
2022/06/27 01:43:34;;;;;;;9.67;8.70;;;;;;;;;;5033346;28;20409;-57
2022/06/27 01:46:00;;;;;;;10.03;9.10;;;;;;;;;;5033293;28;20494;-57
2022/06/27 01:48:27;;;;;;;9.73;8.23;;;;;;;;;;5033100;28;20960;-57
2022/06/27 01:50:54;;;;;;;8.60;7.73;;;;;;;;;;5032803;28;20374;-57
2022/06/27 01:53:21;;;;;;;10.00;9.00;;;;;;;;;;5032970;28;20438;-57
2022/06/27 01:55:47;;;;;;;10.20;9.20;;;;;;;;;;5033325;28;20428;-57
2022/06/27 01:58:14;;;;;;;9.43;8.63;;;;;;;;;;5033050;28;20437;-57
2022/06/27 02:00:39;;;;;;;9.00;8.10;;;;;;;;;;5032744;28;20399;-57
2022/06/27 02:03:06;;;;;;;10.83;7.60;;;;;;;;;;5032787;28;21001;-57
2022/06/27 02:05:33;;;;;;;9.50;8.60;;;;;;;;;;5032807;28;20837;-57
2022/06/27 02:08:00;;;;;;;7.90;7.20;;;;;;;;;;5032737;28;20399;-57
2022/06/27 02:10:26;;;;;;;10.10;8.47;;;;;;;;;;5032526;28;20404;-57
2022/06/27 02:12:52;;;;;;;8.97;8.03;;;;;;;;;;5033005;28;20469;-57
2022/06/27 02:15:18;;;;;;;8.30;7.33;;;;;;;;;;5032889;28;20406;-57
2022/06/27 02:17:44;;;;;;;9.03;8.30;;;;;;;;;;5032583;28;20478;-57
2022/06/27 02:20:10;;;;;;;10.90;8.00;;;;;;;;;;5032256;28;20880;-57
2022/06/27 02:22:36;;;;;;;10.30;8.00;;;;;;;;;;5032481;28;20470;-57
2022/06/27 02:25:02;;;;;;;9.13;8.13;;;;;;;;;;5032543;28;20885;-57
2022/06/27 02:27:30;;;;;;;12.97;8.77;;;;;;;;;;5032484;28;20407;-57
2022/06/27 02:29:56;;;;;;;9.03;8.20;;;;;;;;;;5032405;28;20407;-57
2022/06/27 02:32:22;;;;;;;11.03;8.50;;;;;;;;;;5032116;28;20542;-57
2022/06/27 02:34:50;;;;;;;13.33;7.20;;;;;;;;;;5032443;28;20409;-57
2022/06/27 02:37:16;;;;;;;9.20;8.40;;;;;;;;;;5032326;28;20386;-57
2022/06/27 02:39:44;;;;;;;11.60;9.13;;;;;;;;;;5032240;28;20492;-57
2022/06/27 02:42:10;;;;;;;8.93;7.83;;;;;;;;;;5031970;28;20423;-57
2022/06/27 02:44:39;;;;;;;7.93;7.23;;;;;;;;;;5032234;28;20378;-57
2022/06/27 02:47:06;;;;;;;11.20;7.77;;;;;;;;;;5032138;28;20382;-57
2022/06/27 02:49:32;;;;;;;9.20;7.80;;;;;;;;;;5031808;28;20407;-58
2022/06/27 02:52:17;;;;;;;8.77;7.80;;;;;;;;;;5031289;28;20467;-57
2022/06/27 02:54:47;;;;;;;9.80;8.17;;;;;;;;;;5032075;28;20375;-57
2022/06/27 02:57:22;;;;;;;9.07;8.30;;;;;;;;;;5032092;28;20406;-57
2022/06/27 02:59:49;;;;;;;12.67;8.00;;;;;;;;;;5031857;28;20499;-57
2022/06/27 03:02:16;;;;;;;9.60;7.90;;;;;;;;;;5031570;28;20482;-56
2022/06/27 03:04:42;;;;;;;8.80;7.87;;;;;;;;;;5031956;28;20407;-57
2022/06/27 03:07:08;;;;;;;9.50;7.70;;;;;;;;;;5031883;28;20407;-57
2022/06/27 03:09:34;;;;;;;9.60;8.70;;;;;;;;;;5031797;28;20455;-57
2022/06/27 03:12:00;;;;;;;12.00;9.67;;;;;;;;;;5031601;28;20440;-57
2022/06/27 03:14:26;;;;;;;11.23;9.73;;;;;;;;;;5031776;28;20394;-57
2022/06/27 03:16:52;;;;;;;15.97;10.77;;;;;;;;;;5031833;28;20399;-57
2022/06/27 03:19:18;;;;;;;12.10;10.67;;;;;;;;;;5031740;28;20378;-57
2022/06/27 03:21:44;;;;;;;13.67;12.27;;;;;;;;;;5031430;28;20440;-56
2022/06/27 03:24:10;;;;;;;12.37;11.17;;;;;;;;;;5031795;28;20735;-57
2022/06/27 03:26:36;;;;;;;11.77;10.67;;;;;;;;;;5031762;28;20385;-57
2022/06/27 03:29:03;;;;;;;21.33;11.70;;;;;;;;;;5031602;28;20919;-57
2022/06/27 03:31:29;;;;;;;13.20;10.40;;;;;;;;;;5031294;28;20426;-57
2022/06/27 03:33:55;;;;;;;10.90;9.73;;;;;;;;;;5031736;28;21034;-57
2022/06/27 03:36:21;;;;;;;12.13;10.83;;;;;;;;;;5031638;28;20467;-57
2022/06/27 03:38:47;;;;;;;13.30;11.67;;;;;;;;;;5031665;28;20725;-57
2022/06/27 03:41:13;;;;;;;11.57;10.37;;;;;;;;;;5031299;28;20394;-57
2022/06/27 03:43:39;;;;;;;11.23;10.00;;;;;;;;;;5031418;28;20390;-57
2022/06/27 03:46:05;;;;;;;13.50;11.23;;;;;;;;;;5031516;28;20384;-57
2022/06/27 03:51:16;;;;;;;11.67;10.27;;;;;;;;;;5031209;28;20464;-57
2022/06/27 03:53:42;;;;;;;15.03;10.80;;;;;;;;;;5030171;28;20454;-57
2022/06/27 03:56:08;;;;;;;20.60;12.53;;;;;;;;;;5031389;28;20946;-57
2022/06/27 03:58:34;;;;;;;11.77;10.47;;;;;;;;;;5031476;28;20380;-57
2022/06/27 04:01:01;;;;;;;10.97;9.73;;;;;;;;;;5031009;28;20769;-57
2022/06/27 04:03:27;;;;;;;13.30;9.40;;;;;;;;;;5035301;28;20381;-57
2022/06/27 04:05:53;;;;;;;14.03;9.23;;;;;;;;;;5035268;28;20401;-57
2022/06/27 04:08:19;;;;;;;13.00;9.97;;;;;;;;;;5035050;28;20766;-57
2022/06/27 04:10:45;;;;;;;14.50;9.20;;;;;;;;;;5034721;28;20407;-57
2022/06/27 04:13:11;;;;;;;11.37;9.70;;;;;;;;;;5034858;28;20440;-57
2022/06/27 04:15:37;;;;;;;14.60;10.47;;;;;;;;;;5034894;28;20826;-56
2022/06/27 04:18:03;;;;;;;11.63;9.03;;;;;;;;;;5034935;28;20418;-57
2022/06/27 04:20:29;;;;;;;9.70;8.20;;;;;;;;;;5034701;28;20374;-57
2022/06/27 04:22:55;;;;;;;10.93;9.03;;;;;;;;;;5034766;28;20492;-57
2022/06/27 04:25:21;;;;;;;10.63;9.10;;;;;;;;;;5034679;28;20415;-56
2022/06/27 04:27:47;;;;;;;11.57;9.77;;;;;;;;;;5035035;28;20381;-57
2022/06/27 04:30:16;;;;;;;13.67;10.30;;;;;;;;;;5034867;28;20805;-57
2022/06/27 04:32:43;;;;;;;9.60;8.60;;;;;;;;;;5034326;28;20514;-57
2022/06/27 04:35:09;;;;;;;12.60;9.27;;;;;;;;;;5034627;28;20414;-56
2022/06/27 04:37:35;;;;;;;11.80;9.50;;;;;;;;;;5034578;28;20404;-56
2022/06/27 04:40:01;;;;;;;11.10;9.10;;;;;;;;;;5034381;28;20411;-57
2022/06/27 04:42:27;;;;;;;9.90;8.67;;;;;;;;;;5034280;28;20426;-57
2022/06/27 04:44:54;;;;;;;16.10;8.63;;;;;;;;;;5034416;28;20427;-57
2022/06/27 04:47:20;;;;;;;12.03;8.57;;;;;;;;;;5034395;28;20407;-57
2022/06/27 04:49:46;;;;;;;10.50;9.40;;;;;;;;;;5034282;28;20825;-57
2022/06/27 04:52:13;;;;;;;10.80;8.60;;;;;;;;;;5033978;28;20803;-57
2022/06/27 04:54:39;;;;;;;13.17;8.10;;;;;;;;;;5034216;28;20375;-57
2022/06/27 04:57:05;;;;;;;10.10;9.10;;;;;;;;;;5034220;28;20395;-57
2022/06/27 04:59:31;;;;;;;9.50;8.37;;;;;;;;;;5034332;28;20907;-57
2022/06/27 05:01:58;;;;;;;14.60;9.50;;;;;;;;;;5033740;28;20894;-56
2022/06/27 05:04:24;;;;;;;16.17;8.60;;;;;;;;;;5034091;28;20404;-57
2022/06/27 05:06:50;;;;;;;10.40;8.40;;;;;;;;;;5033986;28;20408;-57
2022/06/27 05:09:17;;;;;;;12.73;9.43;;;;;;;;;;5033949;28;20907;-56
2022/06/27 05:11:47;;;;;;;11.37;10.17;;;;;;;;;;5033600;28;20469;-56
2022/06/27 05:14:13;;;;;;;16.93;10.73;;;;;;;;;;5033414;28;20371;-57
2022/06/27 05:16:39;;;;;;;15.90;11.33;;;;;;;;;;5033944;28;20780;-57
2022/06/27 05:19:05;;;;;;;15.70;10.97;;;;;;;;;;5033797;28;20375;-57
2022/06/27 05:21:31;;;;;;;17.00;11.60;;;;;;;;;;5033411;28;20408;-57
2022/06/27 05:23:57;;;;;;;20.50;11.50;;;;;;;;;;5033694;28;20387;-57
2022/06/27 05:26:23;;;;;;;14.17;11.30;;;;;;;;;;5033736;28;20407;-57
2022/06/27 05:28:49;;;;;;;16.10;11.50;;;;;;;;;;5033530;28;20400;-57
2022/06/27 05:31:15;;;;;;;13.53;11.63;;;;;;;;;;5033246;28;20420;-57
2022/06/27 05:33:42;;;;;;;12.97;11.57;;;;;;;;;;5033167;28;20459;-56
2022/06/27 05:36:10;;;;;;;14.40;10.63;;;;;;;;;;5033502;28;20865;-57
2022/06/27 05:38:36;;;;;;;12.40;11.10;;;;;;;;;;5034204;28;20384;-58
2022/06/27 05:41:02;;;;;;;15.77;11.87;;;;;;;;;;5033281;28;20383;-57
2022/06/27 05:43:30;;;;;;;13.57;11.90;;;;;;;;;;5046753;28;20423;-57
2022/06/27 05:45:56;;;;;;;19.00;12.00;;;;;;;;;;5013415;28;20759;-58
2022/06/27 05:48:22;;;;;;;14.07;12.60;;;;;;;;;;5013392;28;20469;-57
2022/06/27 05:50:48;;;;;;;13.67;12.20;;;;;;;;;;5013282;28;20818;-58
2022/06/27 05:53:15;;;;;;;18.23;12.80;;;;;;;;;;5013144;28;20466;-58
2022/06/27 05:55:41;;;;;;;16.30;12.17;;;;;;;;;;5013240;28;20395;-58
2022/06/27 05:58:08;;;;;;;13.20;11.37;;;;;;;;;;5013260;28;20395;-57
2022/06/27 06:00:34;;;;;;;12.93;10.97;;;;;;;;;;5012838;28;20403;-58
2022/06/27 06:03:00;;;;;;;11.87;10.73;;;;;;;;;;5012419;28;20455;-57
2022/06/27 06:05:28;;;;;;;15.20;10.70;;;;;;;;;;5013115;28;20404;-57
2022/06/27 06:07:54;;;;;;;12.50;9.80;;;;;;;;;;5012960;28;20411;-57
2022/06/27 06:10:21;;;;;;;12.40;10.97;;;;;;;;;;5012922;28;20884;-57
2022/06/27 06:12:49;;;;;;;12.53;10.50;;;;;;;;;;5011791;28;20528;-57
2022/06/27 06:15:15;;;;;;;12.60;10.90;;;;;;;;;;5012696;28;20457;-57
2022/06/27 06:17:42;;;;;;;11.70;10.20;;;;;;;;;;5013027;28;20406;-57
2022/06/27 06:20:09;;;;;;;12.43;11.13;;;;;;;;;;5012776;28;20417;-57
2022/06/27 06:22:35;;;;;;;12.63;10.87;;;;;;;;;;5012643;28;20422;-57
2022/06/27 06:25:01;;;;;;;17.90;12.00;;;;;;;;;;5011949;28;20774;-57
2022/06/27 06:27:29;;;;;;;16.40;11.77;;;;;;;;;;5012756;28;20889;-56
2022/06/27 06:29:55;;;;;;;11.90;10.70;;;;;;;;;;5012564;28;20412;-57
2022/06/27 06:32:21;;;;;;;15.50;11.70;;;;;;;;;;5012330;28;20461;-57
2022/06/27 06:34:48;;;;;;;13.97;11.97;;;;;;;;;;5012696;28;20446;-57
2022/06/27 06:37:14;;;;;;;17.23;13.90;;;;;;;;;;5012625;28;20775;-57
2022/06/27 06:39:40;;;;;;;20.53;14.57;;;;;;;;;;5012585;28;20377;-57
2022/06/27 06:42:06;;;;;;;20.53;14.20;;;;;;;;;;5012206;28;20468;-57
2022/06/27 06:44:32;;;;;;;19.47;15.77;;;;;;;;;;5012601;28;20414;-57
2022/06/27 06:46:58;;;;;;;20.10;16.80;;;;;;;;;;5012529;28;20387;-57
2022/06/27 06:49:25;;;;;;;19.87;14.60;;;;;;;;;;5012378;28;20411;-57
2022/06/27 06:51:51;;;;;;;21.43;15.90;;;;;;;;;;5012070;28;20528;-57
2022/06/27 06:54:20;;;;;;;20.27;16.17;;;;;;;;;;5012356;28;20878;-57
2022/06/27 06:56:49;;;;;;;21.47;16.10;;;;;;;;;;5012676;28;20724;-57
2022/06/27 06:59:17;;;;;;;19.07;14.93;;;;;;;;;;5012281;28;20398;-57
2022/06/27 07:01:43;;;;;;;21.33;14.43;;;;;;;;;;5011959;28;20451;-57
2022/06/27 07:04:11;;;;;;;20.40;16.23;;;;;;;;;;5012282;28;20401;-57
2022/06/27 07:06:38;;;;;;;19.03;15.20;;;;;;;;;;5012294;28;20482;-57
2022/06/27 07:09:05;;;;;;;20.53;15.73;;;;;;;;;;5012029;28;20405;-56
2022/06/27 07:11:36;;;;;;;19.40;16.20;;;;;;;;;;5012158;28;20822;-57
2022/06/27 07:14:02;;;;;;;18.67;15.53;;;;;;;;;;5012195;28;20467;-56
2022/06/27 07:16:28;;;;;;;19.87;16.20;;;;;;;;;;5012113;28;20406;-57
2022/06/27 07:18:55;;;;;;;20.87;16.60;;;;;;;;;;5012466;28;20402;-57
2022/06/27 07:21:22;;;;;;;26.63;18.10;;;;;;;;;;5011746;28;20795;-57
2022/06/27 07:23:48;;;;;;;22.40;19.20;;;;;;;;;;5012370;28;20731;-57
2022/06/27 07:26:16;;;;;;;19.97;15.43;;;;;;;;;;5012033;28;20381;-57
2022/06/27 07:28:42;;;;;;;21.37;15.77;;;;;;;;;;5012081;28;20388;-57
2022/06/27 07:31:11;;;;;;;23.30;17.57;;;;;;;;;;5011623;28;20410;-57
2022/06/27 07:33:37;;;;;;;21.60;17.50;;;;;;;;;;5011631;28;20446;-57
2022/06/27 07:36:06;;;;;;;23.37;19.13;;;;;;;;;;5011975;28;20520;-57
2022/06/27 07:38:38;;;;;;;24.80;18.83;;;;;;;;;;5015932;28;20407;-57
2022/06/27 07:41:04;;;;;;;22.50;17.60;;;;;;;;;;5015539;28;20476;-57
2022/06/27 07:43:30;;;;;;;25.20;16.30;;;;;;;;;;5015973;28;20417;-57
2022/06/27 07:45:56;;;;;;;22.80;18.10;;;;;;;;;;5015762;28;20402;-57
2022/06/27 07:48:22;;;;;;;24.17;18.23;;;;;;;;;;5015736;28;20402;-57
2022/06/27 07:50:48;;;;;;;17.03;15.00;;;;;;;;;;5015475;28;20386;-57
2022/06/27 07:53:15;;;;;;;22.13;17.10;;;;;;;;;;5015501;28;20448;-57
2022/06/27 07:55:44;;;;;;;21.10;16.60;;;;;;;;;;5015574;28;20381;-57
2022/06/27 07:58:14;;;;;;;18.30;16.37;;;;;;;;;;5015543;28;20445;-57
2022/06/27 08:00:41;;;;;;;24.40;17.43;;;;;;;;;;5015148;28;20782;-57
2022/06/27 08:05:53;;;;;;;25.07;17.30;;;;;;;;;;5015520;28;20762;-57
2022/06/27 08:08:19;;;;;;;35.43;17.70;;;;;;;;;;5015371;28;20377;-57
2022/06/27 08:10:45;;;;;;;22.40;17.67;;;;;;;;;;5015089;28;20397;-57
2022/06/27 08:13:12;;;;;;;26.97;19.37;;;;;;;;;;5015040;28;20463;-57
2022/06/27 08:15:38;;;;;;;24.30;16.20;;;;;;;;;;5015248;28;20401;-57
2022/06/27 08:18:04;;;;;;;22.30;18.40;;;;;;;;;;5020802;28;20961;-57
2022/06/27 08:20:30;;;;;;;25.50;18.50;;;;;;;;;;5054481;28;20722;-57
2022/06/27 08:22:56;;;;;;;23.90;17.97;;;;;;;;;;5054109;28;20428;-57
2022/06/27 08:25:22;;;;;;;21.37;17.80;;;;;;;;;;5053756;28;20412;-57
2022/06/27 08:27:48;;;;;;;24.93;19.00;;;;;;;;;;5054525;28;20391;-57
2022/06/27 08:30:15;;;;;;;23.97;18.80;;;;;;;;;;5054450;28;20385;-57
2022/06/27 08:32:41;;;;;;;33.03;21.47;;;;;;;;;;5054295;28;20464;-57
2022/06/27 08:35:08;;;;;;;28.43;22.03;;;;;;;;;;5054377;28;20372;-57
2022/06/27 08:37:34;;;;;;;20.83;17.57;;;;;;;;;;5039723;28;20398;-57
2022/06/27 08:40:01;;;;;;;25.73;17.10;;;;;;;;;;5034272;28;20853;-57
2022/06/27 08:42:28;;;;;;;22.43;17.17;;;;;;;;;;5035079;28;20424;-55
2022/06/27 08:44:54;;;;;;;23.37;19.03;;;;;;;;;;5035167;28;20393;-54
2022/06/27 08:47:21;;;;;;;20.57;18.20;;;;;;;;;;5034714;28;20410;-54
2022/06/27 08:49:51;;;;;;;29.97;21.73;;;;;;;;;;5034045;28;20402;-57
2022/06/27 08:52:18;;;;;;;28.07;19.20;;;;;;;;;;5033702;28;20538;-57
2022/06/27 08:54:45;;;;;;;32.97;19.40;;;;;;;;;;5034825;28;20398;-55
2022/06/27 08:57:11;;;;;;;25.70;19.37;;;;;;;;;;5034935;28;20461;-54
2022/06/27 08:59:37;;;;;;;30.50;20.83;;;;;;;;;;5034695;28;20822;-54
2022/06/27 09:02:04;;;;;;;30.23;22.40;;;;;;;;;;5034409;28;20508;-55
2022/06/27 09:04:31;;;;;;;33.87;23.33;;;;;;;;;;5034769;28;20865;-54
2022/06/27 09:06:57;;;;;;;37.57;26.30;;;;;;;;;;5034395;28;20404;-54
2022/06/27 09:09:27;;;;;;;40.53;28.67;;;;;;;;;;5034257;28;20388;-54
2022/06/27 09:11:54;;;;;;;42.50;27.27;;;;;;;;;;5034487;28;21012;-54
2022/06/27 09:14:34;;;;;;;43.53;26.53;;;;;;;;;;5034300;28;20901;-55
2022/06/27 09:17:02;;;;;;;38.10;26.27;;;;;;;;;;5034351;28;20481;-54
2022/06/27 09:19:45;;;;;;;39.77;27.77;;;;;;;;;;5034043;28;20374;-56
2022/06/27 09:22:15;;;;;;;43.47;28.10;;;;;;;;;;5033764;28;20418;-55
2022/06/27 09:24:59;;;;;;;40.60;26.43;;;;;;;;;;5034015;28;20481;-54
2022/06/27 09:27:39;;;;;;;41.13;27.70;;;;;;;;;;5034050;28;20406;-54
2022/06/27 09:30:25;;;;;;;49.30;30.23;;;;;;;;;;5033747;28;21216;-59
2022/06/27 09:32:53;;;;;;;41.77;28.50;;;;;;;;;;5034357;28;20467;-58
2022/06/27 09:35:27;;;;;;;40.57;26.17;;;;;;;;;;5034323;28;20407;-58
2022/06/27 09:37:57;;;;;;;43.53;27.57;;;;;;;;;;5034309;28;20797;-58
2022/06/27 09:40:24;;;;;;;43.53;26.33;;;;;;;;;;5033692;28;20952;-58
2022/06/27 09:42:56;;;;;;;45.70;28.77;;;;;;;;;;5034253;28;20848;-58
2022/06/27 09:45:27;;;;;;;40.70;25.40;;;;;;;;;;5035931;28;20432;-57
2022/06/27 09:47:57;;;;;;;43.37;26.47;;;;;;;;;;5033679;28;20388;-58
2022/06/27 09:50:23;;;;;;;44.70;27.10;;;;;;;;;;5033530;28;20413;-58
2022/06/27 09:52:49;;;;;;;36.13;23.67;;;;;;;;;;5033308;28;20510;-57
2022/06/27 09:55:18;;;;;;;35.00;23.67;;;;;;;;;;5033133;28;20481;-58
2022/06/27 09:57:44;;;;;;;33.80;22.00;;;;;;;;;;5033150;28;20461;-58
2022/06/27 10:00:11;;;;;;;30.87;20.80;;;;;;;;;;5032463;28;20406;-58
2022/06/27 10:02:37;;;;;;;31.40;21.30;;;;;;;;;;5032795;28;20443;-58
2022/06/27 10:05:03;;;;;;;25.90;20.20;;;;;;;;;;5032803;28;20469;-58
2022/06/27 10:07:31;;;;;;;25.10;18.30;;;;;;;;;;5032979;28;20532;-58
2022/06/27 10:09:58;;;;;;;28.90;20.23;;;;;;;;;;5032911;28;20521;-58
2022/06/27 10:12:24;;;;;;;26.43;20.03;;;;;;;;;;5032668;28;20549;-58
2022/06/27 10:15:09;;;;;;;23.87;19.53;;;;;;;;;;5032907;28;20411;-58
2022/06/27 10:17:38;;;;;;;24.33;19.50;;;;;;;;;;5032772;28;20493;-58
2022/06/27 10:20:10;;;;;;;26.83;18.50;;;;;;;;;;5032465;28;20393;-58
2022/06/27 10:22:36;;;;;;;25.77;19.60;;;;;;;;;;5032624;28;20458;-58
2022/06/27 10:25:20;;;;;;;27.47;19.70;;;;;;;;;;5033127;28;20402;-58
2022/06/27 10:27:50;;;;;;;22.57;18.97;;;;;;;;;;5032393;28;20403;-58
2022/06/27 10:30:34;;;;;;;23.47;17.97;;;;;;;;;;5032093;28;20404;-58
2022/06/27 10:33:00;;;;;;;22.40;18.33;;;;;;;;;;5032144;28;20461;-58
2022/06/27 10:35:27;;;;;;;22.83;18.83;;;;;;;;;;5032701;28;20402;-58
2022/06/27 10:37:53;;;;;;;17.93;15.77;;;;;;;;;;5032427;28;20397;-58
2022/06/27 10:40:19;;;;;;;17.80;15.67;;;;;;;;;;5031197;28;20398;-58
2022/06/27 10:42:55;;;;;;;19.20;15.70;;;;;;;;;;5032242;28;20488;-58
2022/06/27 10:45:21;;;;;;;21.57;15.30;;;;;;;;;;5032198;28;20417;-58
2022/06/27 10:47:50;;;;;;;17.50;14.90;;;;;;;;;;5032066;28;20410;-58
2022/06/27 10:50:18;;;;;;;17.50;15.37;;;;;;;;;;5031704;28;20409;-58
2022/06/27 10:52:45;;;;;;;24.63;15.40;;;;;;;;;;5031660;28;20463;-58
2022/06/27 10:55:31;;;;;;;17.63;15.00;;;;;;;;;;5032038;28;20412;-58
2022/06/27 10:57:58;;;;;;;16.97;15.17;;;;;;;;;;5032073;28;20401;-58
2022/06/27 11:00:36;;;;;;;16.50;13.63;;;;;;;;;;5031801;28;20798;-58
2022/06/27 11:03:02;;;;;;;16.47;14.60;;;;;;;;;;5031814;28;20443;-58
2022/06/27 11:05:29;;;;;;;15.83;14.00;;;;;;;;;;5031908;28;20776;-58
2022/06/27 11:07:55;;;;;;;15.60;13.90;;;;;;;;;;5032076;28;20410;-58
2022/06/27 11:10:22;;;;;;;15.00;13.50;;;;;;;;;;5031582;28;20413;-58
2022/06/27 11:12:48;;;;;;;14.73;12.93;;;;;;;;;;5031199;28;21055;-58
2022/06/27 11:15:14;;;;;;;14.97;13.37;;;;;;;;;;5031728;28;20898;-58
2022/06/27 11:17:45;;;;;;;14.80;13.30;;;;;;;;;;5031671;28;20408;-58
2022/06/27 11:20:13;;;;;;;19.23;13.27;;;;;;;;;;5031414;28;20404;-58
2022/06/27 11:22:42;;;;;;;16.33;13.57;;;;;;;;;;5031686;28;20433;-58
2022/06/27 11:25:09;;;;;;;15.93;14.27;;;;;;;;;;5031710;28;20498;-58
2022/06/27 11:33:34;;;;;;;20.17;15.80;;;;;;;;;;5031581;28;20482;-58
2022/06/27 11:36:00;;;;;;;17.50;15.70;;;;;;;;;;5031538;28;20400;-59
2022/06/27 11:38:28;;;;;;;17.40;15.60;;;;;;;;;;5032901;28;20434;-55
2022/06/27 11:41:03;;;;;;;15.83;14.30;;;;;;;;;;5032184;28;20903;-56
2022/06/27 11:43:48;;;;;;;23.30;18.20;;;;;;;;;;5032478;28;20402;-55
2022/06/27 11:46:21;;;;;;;23.33;18.03;;;;;;;;;;5032797;28;20463;-54
2022/06/27 11:48:51;;;;;;;22.20;16.70;;;;;;;;;;5032536;28;20412;-56
2022/06/27 11:51:47;;;;;;;23.73;18.37;;;;;;;;;;5032223;28;20495;-56
2022/06/27 11:54:14;;;;;;;22.00;18.63;;;;;;;;;;5024198;28;20413;-55
2022/06/27 11:56:42;;;;;;;25.10;19.83;;;;;;;;;;5032592;28;20390;-55
2022/06/27 11:59:10;;;;;;;28.90;21.80;;;;;;;;;;5032282;28;20387;-55
2022/06/27 12:01:55;;;;;;;23.73;19.97;;;;;;;;;;5031984;28;20436;-57
2022/06/27 12:04:30;;;;;;;24.20;20.17;;;;;;;;;;5032252;28;20455;-54
2022/06/27 12:06:58;;;;;;;25.83;20.20;;;;;;;;;;5032634;28;20459;-56
2022/06/27 12:09:28;;;;;;;22.60;18.13;;;;;;;;;;5032298;28;20404;-57
2022/06/27 12:12:05;;;;;;;21.50;17.03;;;;;;;;;;5032115;28;20426;-56
2022/06/27 12:14:32;;;;;;;27.47;20.57;;;;;;;;;;5032504;28;20396;-55
2022/06/27 12:16:59;;;;;;;24.23;19.77;;;;;;;;;;5032246;28;20795;-55
2022/06/27 12:19:29;;;;;;;29.03;23.40;;;;;;;;;;5032453;28;20861;-55
2022/06/27 12:21:55;;;;;;;37.47;25.40;;;;;;;;;;5031950;28;20421;-57
2022/06/27 12:24:22;;;;;;;31.27;25.17;;;;;;;;;;5035720;28;20402;-57
2022/06/27 12:26:48;;;;;;;32.33;25.47;;;;;;;;;;5035739;28;20406;-55
2022/06/27 12:29:14;;;;;;;30.77;22.90;;;;;;;;;;5035637;28;20403;-56
2022/06/27 12:31:40;;;;;;;28.80;23.90;;;;;;;;;;5035753;28;20501;-54
2022/06/27 12:34:07;;;;;;;28.07;23.60;;;;;;;;;;5035528;28;20442;-55
2022/06/27 12:36:33;;;;;;;27.90;22.60;;;;;;;;;;5035468;28;20468;-55
2022/06/27 12:39:00;;;;;;;26.77;21.77;;;;;;;;;;5035304;28;20489;-55
2022/06/27 12:41:27;;;;;;;30.43;21.63;;;;;;;;;;5034877;28;20876;-55
2022/06/27 12:43:53;;;;;;;26.03;22.57;;;;;;;;;;5034998;28;20490;-54
2022/06/27 12:46:19;;;;;;;28.67;24.00;;;;;;;;;;5035230;28;20406;-56
2022/06/27 12:48:46;;;;;;;23.43;20.93;;;;;;;;;;5034859;28;20429;-55
2022/06/27 12:51:12;;;;;;;24.17;21.57;;;;;;;;;;5034941;28;20406;-55
2022/06/27 12:53:38;;;;;;;25.03;21.63;;;;;;;;;;5034760;28;20511;-55
2022/06/27 12:56:04;;;;;;;26.80;22.10;;;;;;;;;;5033787;28;20828;-55
2022/06/27 12:58:31;;;;;;;25.33;22.67;;;;;;;;;;5034693;28;20985;-55
2022/06/27 13:00:57;;;;;;;21.47;19.27;;;;;;;;;;5034343;28;20400;-57
2022/06/27 13:03:22;;;;;;;22.23;19.97;;;;;;;;;;5034950;28;20585;-58
2022/06/27 13:05:49;;;;;;;22.87;20.47;;;;;;;;;;5035009;28;20731;-55
2022/06/27 13:08:16;;;;;;;20.50;18.40;;;;;;;;;;5034780;28;20779;-56
2022/06/27 13:10:42;;;;;;;19.97;18.07;;;;;;;;;;5034133;28;20427;-57
2022/06/27 13:13:08;;;;;;;21.50;18.13;;;;;;;;;;5034022;28;20456;-56
2022/06/27 13:15:37;;;;;;;20.07;18.17;;;;;;;;;;5033981;28;20973;-58
2022/06/27 13:18:03;;;;;;;20.13;18.00;;;;;;;;;;5034078;28;20394;-57
2022/06/27 13:20:29;;;;;;;19.93;17.80;;;;;;;;;;5034252;28;20483;-55
2022/06/27 13:22:55;;;;;;;20.53;18.53;;;;;;;;;;5033659;28;20440;-56
2022/06/27 13:25:22;;;;;;;21.57;19.10;;;;;;;;;;5034020;28;20411;-56
2022/06/27 13:27:48;;;;;;;22.53;18.90;;;;;;;;;;5033794;28;20409;-55
2022/06/27 13:30:14;;;;;;;20.20;18.20;;;;;;;;;;5033548;28;20417;-55
2022/06/27 13:32:40;;;;;;;21.10;19.03;;;;;;;;;;5033665;28;20460;-55
2022/06/27 13:35:07;;;;;;;21.00;18.77;;;;;;;;;;5033291;28;20405;-56
2022/06/27 13:37:33;;;;;;;21.63;19.30;;;;;;;;;;5033657;28;20398;-55
2022/06/27 13:39:59;;;;;;;24.57;19.33;;;;;;;;;;5033586;28;20405;-55
2022/06/27 13:42:25;;;;;;;20.13;18.23;;;;;;;;;;5033452;28;20422;-55
2022/06/27 13:44:53;;;;;;;23.80;21.33;;;;;;;;;;5033777;28;20936;-55
2022/06/27 13:47:19;;;;;;;24.20;19.13;;;;;;;;;;5033611;28;20797;-57
2022/06/27 13:49:47;;;;;;;20.27;18.20;;;;;;;;;;5033891;28;20732;-58
2022/06/27 13:52:14;;;;;;;22.03;19.57;;;;;;;;;;5033223;28;20945;-58
2022/06/27 13:54:40;;;;;;;18.13;16.40;;;;;;;;;;5032604;28;20407;-57
2022/06/27 13:57:06;;;;;;;20.30;18.47;;;;;;;;;;5033337;28;20395;-56
2022/06/27 13:59:32;;;;;;;19.60;17.60;;;;;;;;;;5033407;28;20947;-56
2022/06/27 14:01:59;;;;;;;19.23;17.43;;;;;;;;;;5033319;28;20779;-57
2022/06/27 14:04:26;;;;;;;16.57;15.07;;;;;;;;;;5033392;28;20394;-57
2022/06/27 14:09:37;;;;;;;14.80;13.40;;;;;;;;;;5033860;28;20912;-58
2022/06/27 14:12:03;;;;;;;16.10;14.40;;;;;;;;;;5033032;28;20423;-58
2022/06/27 14:14:29;;;;;;;15.07;13.70;;;;;;;;;;5033336;28;20406;-57
2022/06/27 14:16:55;;;;;;;17.60;15.90;;;;;;;;;;5033354;28;20402;-58
2022/06/27 14:19:22;;;;;;;17.80;16.13;;;;;;;;;;5033337;28;20464;-56
2022/06/27 14:21:49;;;;;;;17.40;15.80;;;;;;;;;;5032933;28;20422;-57
2022/06/27 14:24:15;;;;;;;17.90;16.10;;;;;;;;;;5032897;28;20406;-55
2022/06/27 14:26:42;;;;;;;17.60;15.90;;;;;;;;;;5032842;28;20483;-56
2022/06/27 14:29:08;;;;;;;18.37;16.60;;;;;;;;;;5037077;28;20424;-55
2022/06/27 14:31:34;;;;;;;18.87;17.30;;;;;;;;;;5032484;28;20429;-55
2022/06/27 14:34:00;;;;;;;18.97;17.07;;;;;;;;;;5031700;28;20490;-54
2022/06/27 14:36:26;;;;;;;19.43;17.20;;;;;;;;;;5032911;28;20404;-55
2022/06/27 14:38:52;;;;;;;19.30;17.40;;;;;;;;;;5032851;28;20765;-54
2022/06/27 14:41:18;;;;;;;19.03;17.13;;;;;;;;;;5032165;28;20431;-54